Terminal Aerodrome Forecast
Issued by NWS Aberdeen, SD

Home | Current Version | Previous Version | Text Only | Print | Product List | Glossary On
Versions: 1 2 3 4 5 6 7 8 9 10 11 12 13 14 15 16 17 18 19 20 21 22 23 24 25 26 27 28 29 30 31 32 33 34 35 36 37 38 39 40 41 42 43 44 45 46 47 48 49 50
000
FTAK31 PAFA 180302 AAA
TAFABR
TAF AMD
PABR 180302Z 1803/1824 32012KT 5SM -SN SCT004 BKN030 OVC050
     FM180400 01012G15KT 4SM -SN BR SCT004 OVC020
     FM180800 03015G26KT 2SM -SN BLSN BR BKN005 OVC015
     FM181200 04023G34KT 1/2SM -SN BLSN OVC005
     FM181800 36010KT 6SM -SHSN BR BKN025 BKN050=

USA.gov is the U.S. government's official web portal to all federal, state and local government web resources and services.